sensor_id;sensor_type;location;lat;lon;timestamp;pressure;altitude;pressure_sealevel;temperature;humidity
64827;BME280;51265;53.972;12.286;2022-12-07T00:01:51;100591.56;;;-0.54;100.00
64827;BME280;51265;53.972;12.286;2022-12-07T00:04:17;100579.22;;;-0.49;100.00
64827;BME280;51265;53.972;12.286;2022-12-07T00:06:46;100582.38;;;-0.53;100.00
64827;BME280;51265;53.972;12.286;2022-12-07T00:09:16;100576.53;;;-0.49;100.00
64827;BME280;51265;53.972;12.286;2022-12-07T00:11:43;100571.69;;;-0.47;100.00
64827;BME280;51265;53.972;12.286;2022-12-07T00:14:13;100564.94;;;-0.57;100.00
64827;BME280;51265;53.972;12.286;2022-12-07T00:16:40;100560.00;;;-0.60;100.00
64827;BME280;51265;53.972;12.286;2022-12-07T00:19:06;100548.22;;;-0.65;100.00
64827;BME280;51265;53.972;12.286;2022-12-07T00:21:35;100539.66;;;-0.62;100.00
64827;BME280;51265;53.972;12.286;2022-12-07T00:24:02;100541.34;;;-0.68;100.00
64827;BME280;51265;53.972;12.286;2022-12-07T00:26:30;100536.88;;;-0.74;100.00
64827;BME280;51265;53.972;12.286;2022-12-07T00:29:03;100519.34;;;-0.71;100.00
64827;BME280;51265;53.972;12.286;2022-12-07T00:31:32;100521.41;;;-0.67;100.00
64827;BME280;51265;53.972;12.286;2022-12-07T00:33:59;100512.28;;;-0.72;100.00
64827;BME280;51265;53.972;12.286;2022-12-07T00:36:25;100505.16;;;-0.67;100.00
64827;BME280;51265;53.972;12.286;2022-12-07T00:38:51;100501.84;;;-0.69;100.00
64827;BME280;51265;53.972;12.286;2022-12-07T00:41:37;100493.06;;;-0.64;100.00
64827;BME280;51265;53.972;12.286;2022-12-07T00:44:03;100489.75;;;-0.66;100.00
64827;BME280;51265;53.972;12.286;2022-12-07T00:46:29;100479.75;;;-0.66;100.00
64827;BME280;51265;53.972;12.286;2022-12-07T00:48:55;100476.59;;;-0.63;100.00
64827;BME280;51265;53.972;12.286;2022-12-07T00:51:23;100467.44;;;-0.62;100.00
64827;BME280;51265;53.972;12.286;2022-12-07T00:53:49;100458.81;;;-0.70;100.00
64827;BME280;51265;53.972;12.286;2022-12-07T00:56:22;100458.19;;;-0.72;100.00
64827;BME280;51265;53.972;12.286;2022-12-07T00:58:51;100457.38;;;-0.73;100.00
64827;BME280;51265;53.972;12.286;2022-12-07T01:01:17;100445.81;;;-0.80;100.00
64827;BME280;51265;53.972;12.286;2022-12-07T01:03:43;100446.88;;;-0.81;100.00
64827;BME280;51265;53.972;12.286;2022-12-07T01:06:09;100437.31;;;-0.84;100.00
64827;BME280;51265;53.972;12.286;2022-12-07T01:08:34;100432.16;;;-0.85;100.00
64827;BME280;51265;53.972;12.286;2022-12-07T01:11:06;100426.38;;;-0.89;100.00
64827;BME280;51265;53.972;12.286;2022-12-07T01:13:34;100423.91;;;-0.90;100.00
64827;BME280;51265;53.972;12.286;2022-12-07T01:16:02;100420.59;;;-0.92;100.00
64827;BME280;51265;53.972;12.286;2022-12-07T01:18:37;100414.16;;;-0.91;100.00
64827;BME280;51265;53.972;12.286;2022-12-07T01:21:19;100420.59;;;-0.92;100.00
64827;BME280;51265;53.972;12.286;2022-12-07T01:23:46;100412.50;;;-0.92;100.00
64827;BME280;51265;53.972;12.286;2022-12-07T01:26:15;100416.03;;;-0.92;100.00
64827;BME280;51265;53.972;12.286;2022-12-07T01:28:42;100413.78;;;-0.95;100.00
64827;BME280;51265;53.972;12.286;2022-12-07T01:31:19;100411.91;;;-0.94;100.00
64827;BME280;51265;53.972;12.286;2022-12-07T01:33:49;100413.56;;;-0.93;100.00
64827;BME280;51265;53.972;12.286;2022-12-07T01:36:17;100413.56;;;-0.93;100.00
64827;BME280;51265;53.972;12.286;2022-12-07T01:38:44;100410.63;;;-0.92;100.00
64827;BME280;51265;53.972;12.286;2022-12-07T01:41:10;100413.09;;;-0.90;100.00
64827;BME280;51265;53.972;12.286;2022-12-07T01:43:36;100410.63;;;-0.92;100.00
64827;BME280;51265;53.972;12.286;2022-12-07T01:46:03;100400.03;;;-0.93;100.00
64827;BME280;51265;53.972;12.286;2022-12-07T01:48:36;100404.38;;;-0.92;100.00
64827;BME280;51265;53.972;12.286;2022-12-07T01:51:11;100399.81;;;-0.92;100.00
64827;BME280;51265;53.972;12.286;2022-12-07T01:53:42;100406.06;;;-0.91;100.00
64827;BME280;51265;53.972;12.286;2022-12-07T01:56:11;100398.97;;;-0.92;100.00
64827;BME280;51265;53.972;12.286;2022-12-07T01:58:38;100407.69;;;-0.90;100.00
64827;BME280;51265;53.972;12.286;2022-12-07T02:01:04;100398.53;;;-0.89;100.00
64827;BME280;51265;53.972;12.286;2022-12-07T02:03:41;100396.63;;;-0.89;100.00
64827;BME280;51265;53.972;12.286;2022-12-07T02:06:11;100391.84;;;-0.87;100.00
64827;BME280;51265;53.972;12.286;2022-12-07T02:08:38;100398.53;;;-0.89;100.00
64827;BME280;51265;53.972;12.286;2022-12-07T02:11:06;100395.81;;;-0.89;100.00
64827;BME280;51265;53.972;12.286;2022-12-07T02:13:35;100387.25;;;-0.86;100.00
64827;BME280;51265;53.972;12.286;2022-12-07T02:21:51;100388.22;;;-0.81;100.00
64827;BME280;51265;53.972;12.286;2022-12-07T02:24:31;100381.41;;;-0.83;100.00
64827;BME280;51265;53.972;12.286;2022-12-07T02:29:39;100371.78;;;-0.79;100.00
64827;BME280;51265;53.972;12.286;2022-12-07T02:32:27;100371.28;;;-0.76;100.00
64827;BME280;51265;53.972;12.286;2022-12-07T02:35:25;100367.56;;;-0.75;100.00
64827;BME280;51265;53.972;12.286;2022-12-07T02:38:14;100379.19;;;-0.63;100.00
64827;BME280;51265;53.972;12.286;2022-12-07T02:40:50;100374.16;;;-0.71;100.00
64827;BME280;51265;53.972;12.286;2022-12-07T02:43:24;100374.28;;;-0.66;100.00
64827;BME280;51265;53.972;12.286;2022-12-07T02:45:51;100369.69;;;-0.65;100.00
64827;BME280;51265;53.972;12.286;2022-12-07T02:48:19;100369.56;;;-0.70;100.00
64827;BME280;51265;53.972;12.286;2022-12-07T02:50:48;100354.59;;;-0.73;100.00
64827;BME280;51265;53.972;12.286;2022-12-07T02:53:40;100369.78;;;-0.72;100.00
64827;BME280;51265;53.972;12.286;2022-12-07T03:02:31;100362.41;;;-0.65;100.00
64827;BME280;51265;53.972;12.286;2022-12-07T03:08:04;100355.34;;;-0.66;100.00
64827;BME280;51265;53.972;12.286;2022-12-07T03:10:50;100359.13;;;-0.67;100.00
64827;BME280;51265;53.972;12.286;2022-12-07T03:19:19;100348.63;;;-0.63;100.00
64827;BME280;51265;53.972;12.286;2022-12-07T03:21:43;100346.75;;;-0.63;100.00
64827;BME280;51265;53.972;12.286;2022-12-07T03:24:14;100345.09;;;-0.64;100.00
64827;BME280;51265;53.972;12.286;2022-12-07T03:26:45;100339.69;;;-0.64;100.00
64827;BME280;51265;53.972;12.286;2022-12-07T03:29:28;100349.69;;;-0.64;100.00
64827;BME280;51265;53.972;12.286;2022-12-07T03:34:53;100339.25;;;-0.61;100.00
64827;BME280;51265;53.972;12.286;2022-12-07T03:37:29;100350.19;;;-0.56;100.00
64827;BME280;51265;53.972;12.286;2022-12-07T03:40:04;100346.06;;;-0.58;100.00
64827;BME280;51265;53.972;12.286;2022-12-07T03:42:33;100342.75;;;-0.60;100.00
64827;BME280;51265;53.972;12.286;2022-12-07T03:45:04;100339.47;;;-0.62;100.00
64827;BME280;51265;53.972;12.286;2022-12-07T03:47:50;100334.63;;;-0.72;100.00
64827;BME280;51265;53.972;12.286;2022-12-07T03:50:21;100335.56;;;-0.78;100.00
64827;BME280;51265;53.972;12.286;2022-12-07T03:53:07;100337.94;;;-0.70;100.00
64827;BME280;51265;53.972;12.286;2022-12-07T03:55:35;100340.50;;;-0.63;100.00
64827;BME280;51265;53.972;12.286;2022-12-07T03:58:07;100328.88;;;-0.64;100.00
64827;BME280;51265;53.972;12.286;2022-12-07T04:00:35;100320.75;;;-0.64;100.00
64827;BME280;51265;53.972;12.286;2022-12-07T04:03:01;100322.41;;;-0.63;100.00
64827;BME280;51265;53.972;12.286;2022-12-07T04:05:27;100325.72;;;-0.61;100.00
64827;BME280;51265;53.972;12.286;2022-12-07T04:07:53;100323.94;;;-0.55;100.00
64827;BME280;51265;53.972;12.286;2022-12-07T04:10:19;100320.53;;;-0.51;100.00
64827;BME280;51265;53.972;12.286;2022-12-07T04:12:45;100311.75;;;-0.46;100.00
64827;BME280;51265;53.972;12.286;2022-12-07T04:15:11;100312.56;;;-0.45;100.00
64827;BME280;51265;53.972;12.286;2022-12-07T04:17:37;100312.56;;;-0.45;100.00
64827;BME280;51265;53.972;12.286;2022-12-07T04:20:05;100314.22;;;-0.44;100.00
64827;BME280;51265;53.972;12.286;2022-12-07T04:22:31;100316.91;;;-0.44;100.00
64827;BME280;51265;53.972;12.286;2022-12-07T04:24:57;100321.50;;;-0.45;100.00
64827;BME280;51265;53.972;12.286;2022-12-07T04:27:33;100316.66;;;-0.43;100.00
64827;BME280;51265;53.972;12.286;2022-12-07T04:29:59;100309.38;;;-0.42;100.00
64827;BME280;51265;53.972;12.286;2022-12-07T04:32:25;100308.81;;;-0.44;100.00
64827;BME280;51265;53.972;12.286;2022-12-07T04:34:51;100315.28;;;-0.45;100.00
64827;BME280;51265;53.972;12.286;2022-12-07T04:37:17;100300.69;;;-0.44;100.00
64827;BME280;51265;53.972;12.286;2022-12-07T04:39:43;100299.16;;;-0.40;100.00
64827;BME280;51265;53.972;12.286;2022-12-07T04:42:10;100296.00;;;-0.37;100.00
64827;BME280;51265;53.972;12.286;2022-12-07T04:44:38;100298.69;;;-0.37;100.00
64827;BME280;51265;53.972;12.286;2022-12-07T04:47:04;100293.28;;;-0.37;100.00
64827;BME280;51265;53.972;12.286;2022-12-07T04:49:30;100294.31;;;-0.27;100.00
64827;BME280;51265;53.972;12.286;2022-12-07T04:51:56;100297.84;;;-0.26;100.00
64827;BME280;51265;53.972;12.286;2022-12-07T04:54:22;100295.63;;;-0.29;100.00
64827;BME280;51265;53.972;12.286;2022-12-07T04:56:48;100289.25;;;-0.35;100.00
64827;BME280;51265;53.972;12.286;2022-12-07T04:59:15;100289.50;;;-0.36;100.00
64827;BME280;51265;53.972;12.286;2022-12-07T05:01:43;100287.38;;;-0.34;100.00
64827;BME280;51265;53.972;12.286;2022-12-07T05:04:09;100287.53;;;-0.29;100.00
64827;BME280;51265;53.972;12.286;2022-12-07T05:06:35;100290.22;;;-0.29;100.00
64827;BME280;51265;53.972;12.286;2022-12-07T05:09:01;100281.25;;;-0.30;100.00
64827;BME280;51265;53.972;12.286;2022-12-07T05:11:27;100287.75;;;-0.31;100.00
64827;BME280;51265;53.972;12.286;2022-12-07T05:14:12;100283.84;;;-0.23;100.00
64827;BME280;51265;53.972;12.286;2022-12-07T05:16:40;100283.97;;;-0.18;100.00
64827;BME280;51265;53.972;12.286;2022-12-07T05:19:07;100279.41;;;-0.29;100.00
64827;BME280;51265;53.972;12.286;2022-12-07T05:21:33;100272.56;;;-0.20;100.00
64827;BME280;51265;53.972;12.286;2022-12-07T05:23:59;100268.22;;;-0.33;100.00
64827;BME280;51265;53.972;12.286;2022-12-07T05:26:25;100269.03;;;-0.32;100.00
64827;BME280;51265;53.972;12.286;2022-12-07T05:28:52;100269.16;;;-0.39;100.00
64827;BME280;51265;53.972;12.286;2022-12-07T05:31:18;100263.97;;;-0.52;100.00
64827;BME280;51265;53.972;12.286;2022-12-07T05:33:44;100272.53;;;-0.55;100.00
64827;BME280;51265;53.972;12.286;2022-12-07T05:36:10;100269.84;;;-0.55;100.00
64827;BME280;51265;53.972;12.286;2022-12-07T05:38:36;100272.06;;;-0.64;100.00
64827;BME280;51265;53.972;12.286;2022-12-07T05:41:02;100277.47;;;-0.64;100.00
64827;BME280;51265;53.972;12.286;2022-12-07T05:43:29;100281.25;;;-0.65;100.00
64827;BME280;51265;53.972;12.286;2022-12-07T05:45:55;100283.84;;;-0.70;100.00
64827;BME280;51265;53.972;12.286;2022-12-07T05:48:22;100284.28;;;-0.73;100.00
64827;BME280;51265;53.972;12.286;2022-12-07T05:50:49;100279.47;;;-0.83;100.00
64827;BME280;51265;53.972;12.286;2022-12-07T05:53:15;100288.28;;;-0.87;100.00
64827;BME280;51265;53.972;12.286;2022-12-07T05:55:41;100293.69;;;-0.87;100.00
64827;BME280;51265;53.972;12.286;2022-12-07T05:58:07;100295.31;;;-0.86;100.00
64827;BME280;51265;53.972;12.286;2022-12-07T06:00:54;100303.56;;;-0.81;100.00
64827;BME280;51265;53.972;12.286;2022-12-07T06:03:20;100304.63;;;-0.82;100.00
64827;BME280;51265;53.972;12.286;2022-12-07T06:05:46;100316.03;;;-0.80;100.00
64827;BME280;51265;53.972;12.286;2022-12-07T06:08:11;100318.72;;;-0.80;100.00
64827;BME280;51265;53.972;12.286;2022-12-07T06:10:37;100321.22;;;-0.79;100.00
64827;BME280;51265;53.972;12.286;2022-12-07T06:13:03;100330.16;;;-0.78;100.00
64827;BME280;51265;53.972;12.286;2022-12-07T06:15:29;100325.44;;;-0.83;100.00
64827;BME280;51265;53.972;12.286;2022-12-07T06:17:55;100331.06;;;-0.84;100.00
64827;BME280;51265;53.972;12.286;2022-12-07T06:20:21;100326.59;;;-0.90;100.00
64827;BME280;51265;53.972;12.286;2022-12-07T06:22:46;100336.22;;;-0.94;100.00
64827;BME280;51265;53.972;12.286;2022-12-07T06:25:12;100337.28;;;-0.95;100.00
64827;BME280;51265;53.972;12.286;2022-12-07T06:27:38;100341.00;;;-0.96;100.00
64827;BME280;51265;53.972;12.286;2022-12-07T06:30:04;100344.31;;;-0.94;100.00
64827;BME280;51265;53.972;12.286;2022-12-07T06:32:33;100348.53;;;-0.98;100.00
64827;BME280;51265;53.972;12.286;2022-12-07T06:34:59;100352.06;;;-0.98;100.00
64827;BME280;51265;53.972;12.286;2022-12-07T06:37:26;100363.69;;;-0.97;100.00
64827;BME280;51265;53.972;12.286;2022-12-07T06:39:51;100369.72;;;-0.95;100.00
64827;BME280;51265;53.972;12.286;2022-12-07T06:42:17;100374.06;;;-0.94;100.00
64827;BME280;51265;53.972;12.286;2022-12-07T06:44:43;100385.25;;;-0.91;100.00
64827;BME280;51265;53.972;12.286;2022-12-07T06:47:09;100382.31;;;-0.89;100.00
64827;BME280;51265;53.972;12.286;2022-12-07T06:49:35;100388.09;;;-0.86;100.00
64827;BME280;51265;53.972;12.286;2022-12-07T06:52:00;100387.25;;;-0.86;100.00
64827;BME280;51265;53.972;12.286;2022-12-07T06:54:26;100389.34;;;-0.88;100.00
64827;BME280;51265;53.972;12.286;2022-12-07T06:56:53;100392.66;;;-0.86;100.00
64827;BME280;51265;53.972;12.286;2022-12-07T06:59:19;100393.25;;;-0.84;100.00
64827;BME280;51265;53.972;12.286;2022-12-07T07:01:44;100386.44;;;-0.87;100.00
64827;BME280;51265;53.972;12.286;2022-12-07T07:04:10;100389.34;;;-0.88;100.00
64827;BME280;51265;53.972;12.286;2022-12-07T07:06:36;100389.00;;;-0.92;100.00
64827;BME280;51265;53.972;12.286;2022-12-07T07:09:02;100399.59;;;-0.90;100.00
64827;BME280;51265;53.972;12.286;2022-12-07T07:11:28;100407.69;;;-0.90;100.00
64827;BME280;51265;53.972;12.286;2022-12-07T07:13:54;100402.97;;;-0.95;100.00
64827;BME280;51265;53.972;12.286;2022-12-07T07:16:23;100411.53;;;-0.98;100.00
64827;BME280;51265;53.972;12.286;2022-12-07T07:18:49;100417.91;;;-0.92;100.00
64827;BME280;51265;53.972;12.286;2022-12-07T07:21:15;100426.75;;;-0.85;100.00
64827;BME280;51265;53.972;12.286;2022-12-07T07:23:41;100432.97;;;-0.85;100.00
64827;BME280;51265;53.972;12.286;2022-12-07T07:26:07;100428.78;;;-0.81;100.00
64827;BME280;51265;53.972;12.286;2022-12-07T07:28:32;100428.25;;;-0.71;100.00
64827;BME280;51265;53.972;12.286;2022-12-07T07:30:58;100420.94;;;-0.70;100.00
64827;BME280;51265;53.972;12.286;2022-12-07T07:33:24;100442.47;;;-0.64;100.00
64827;BME280;51265;53.972;12.286;2022-12-07T07:35:50;100438.63;;;-0.56;100.00
64827;BME280;51265;53.972;12.286;2022-12-07T07:38:16;100446.38;;;-0.60;100.00
64827;BME280;51265;53.972;12.286;2022-12-07T07:40:41;100447.06;;;-0.64;100.00
64827;BME280;51265;53.972;12.286;2022-12-07T07:43:07;100454.50;;;-0.60;100.00
64827;BME280;51265;53.972;12.286;2022-12-07T07:45:33;100456.00;;;-0.64;100.00
64827;BME280;51265;53.972;12.286;2022-12-07T07:47:59;100450.53;;;-0.76;100.00
64827;BME280;51265;53.972;12.286;2022-12-07T07:50:25;100450.50;;;-0.87;100.00
64827;BME280;51265;53.972;12.286;2022-12-07T07:52:51;100460.56;;;-0.94;100.00
64827;BME280;51265;53.972;12.286;2022-12-07T07:55:17;100458.94;;;-0.95;100.00
64827;BME280;51265;53.972;12.286;2022-12-07T07:57:44;100455.16;;;-0.94;100.00
64827;BME280;51265;53.972;12.286;2022-12-07T08:00:14;100450.81;;;-0.95;100.00
64827;BME280;51265;53.972;12.286;2022-12-07T08:02:41;100459.06;;;-0.90;100.00
64827;BME280;51265;53.972;12.286;2022-12-07T08:05:09;100460.13;;;-0.91;100.00
64827;BME280;51265;53.972;12.286;2022-12-07T08:07:35;100460.13;;;-0.91;100.00
64827;BME280;51265;53.972;12.286;2022-12-07T08:10:01;100459.50;;;-0.93;100.00
64827;BME280;51265;53.972;12.286;2022-12-07T08:12:27;100463.84;;;-0.92;100.00
64827;BME280;51265;53.972;12.286;2022-12-07T08:14:53;100459.34;;;-0.80;100.00
64827;BME280;51265;53.972;12.286;2022-12-07T08:17:19;100470.00;;;-0.67;100.00
64827;BME280;51265;53.972;12.286;2022-12-07T08:19:45;100466.69;;;-0.69;100.00
64827;BME280;51265;53.972;12.286;2022-12-07T08:22:11;100462.34;;;-0.70;100.00
64827;BME280;51265;53.972;12.286;2022-12-07T08:24:36;100472.03;;;-0.62;100.00
64827;BME280;51265;53.972;12.286;2022-12-07T08:27:03;100463.44;;;-0.59;100.00
64827;BME280;51265;53.972;12.286;2022-12-07T08:29:29;100461.03;;;-0.67;100.00
64827;BME280;51265;53.972;12.286;2022-12-07T08:31:55;100465.19;;;-0.65;100.00
64827;BME280;51265;53.972;12.286;2022-12-07T08:34:21;100469.06;;;-0.61;100.00
64827;BME280;51265;53.972;12.286;2022-12-07T08:36:47;100471.34;;;-0.58;100.00
64827;BME280;51265;53.972;12.286;2022-12-07T08:39:13;100478.66;;;-0.46;100.00
64827;BME280;51265;53.972;12.286;2022-12-07T08:41:39;100479.31;;;-0.21;100.00
64827;BME280;51265;53.972;12.286;2022-12-07T08:44:05;100490.81;;;0.05;100.00
64827;BME280;51265;53.972;12.286;2022-12-07T08:46:36;100493.66;;;0.10;100.00
64827;BME280;51265;53.972;12.286;2022-12-07T08:49:07;100489.28;;;0.09;100.00
64827;BME280;51265;53.972;12.286;2022-12-07T08:51:35;100494.09;;;0.07;100.00
64827;BME280;51265;53.972;12.286;2022-12-07T08:54:04;100489.16;;;0.04;100.00
64827;BME280;51265;53.972;12.286;2022-12-07T08:56:33;100479.84;;;-0.12;100.00
64827;BME280;51265;53.972;12.286;2022-12-07T08:59:00;100477.78;;;-0.17;100.00
64827;BME280;51265;53.972;12.286;2022-12-07T09:01:25;100474.44;;;-0.42;100.00
64827;BME280;51265;53.972;12.286;2022-12-07T09:03:52;100462.06;;;-0.50;100.00
64827;BME280;51265;53.972;12.286;2022-12-07T09:06:18;100464.41;;;-0.54;100.00
64827;BME280;51265;53.972;12.286;2022-12-07T09:08:46;100472.91;;;-0.38;100.00
64827;BME280;51265;53.972;12.286;2022-12-07T09:11:13;100479.38;;;-0.39;100.00
64827;BME280;51265;53.972;12.286;2022-12-07T09:13:39;100465.28;;;-0.41;100.00
64827;BME280;51265;53.972;12.286;2022-12-07T09:16:05;100469.31;;;-0.32;100.00
64827;BME280;51265;53.972;12.286;2022-12-07T09:18:31;100478.28;;;-0.20;100.00
64827;BME280;51265;53.972;12.286;2022-12-07T09:20:57;100473.56;;;-0.13;100.00
64827;BME280;51265;53.972;12.286;2022-12-07T09:23:23;100477.75;;;0.02;100.00
64827;BME280;51265;53.972;12.286;2022-12-07T09:25:48;100478.31;;;0.04;100.00
64827;BME280;51265;53.972;12.286;2022-12-07T09:28:14;100466.09;;;0.13;100.00
64827;BME280;51265;53.972;12.286;2022-12-07T09:30:47;100470.19;;;0.04;100.00
64827;BME280;51265;53.972;12.286;2022-12-07T09:33:14;100461.25;;;0.03;100.00
64827;BME280;51265;53.972;12.286;2022-12-07T09:35:50;100472.22;;;0.20;100.00
64827;BME280;51265;53.972;12.286;2022-12-07T09:38:17;100473.41;;;0.24;100.00
64827;BME280;51265;53.972;12.286;2022-12-07T09:40:44;100470.69;;;0.24;100.00
64827;BME280;51265;53.972;12.286;2022-12-07T09:43:20;100454.31;;;0.19;100.00
64827;BME280;51265;53.972;12.286;2022-12-07T09:45:51;100451.50;;;0.14;100.00
64827;BME280;51265;53.972;12.286;2022-12-07T09:48:21;100452.41;;;0.08;100.00
64827;BME280;51265;53.972;12.286;2022-12-07T09:50:49;100457.75;;;0.14;100.00
64827;BME280;51265;53.972;12.286;2022-12-07T09:53:36;100459.84;;;0.24;100.00
64827;BME280;51265;53.972;12.286;2022-12-07T09:56:04;100448.78;;;0.14;100.00
64827;BME280;51265;53.972;12.286;2022-12-07T09:58:31;100448.09;;;0.18;100.00
64827;BME280;51265;53.972;12.286;2022-12-07T10:01:11;100434.28;;;0.20;100.00
64827;BME280;51265;53.972;12.286;2022-12-07T10:03:40;100433.25;;;0.33;100.00
64827;BME280;51265;53.972;12.286;2022-12-07T10:06:10;100435.00;;;0.27;100.00
64827;BME280;51265;53.972;12.286;2022-12-07T10:08:38;100423.09;;;0.28;100.00
64827;BME280;51265;53.972;12.286;2022-12-07T10:11:04;100421.22;;;0.29;100.00
64827;BME280;51265;53.972;12.286;2022-12-07T10:13:39;100408.38;;;0.24;100.00
64827;BME280;51265;53.972;12.286;2022-12-07T10:16:32;100395.34;;;0.21;100.00
64827;BME280;51265;53.972;12.286;2022-12-07T10:18:54;100395.91;;;0.23;100.00
64827;BME280;51265;53.972;12.286;2022-12-07T10:21:22;100400.88;;;0.26;100.00
64827;BME280;51265;53.972;12.286;2022-12-07T10:24:04;100382.97;;;0.02;100.00
64827;BME280;51265;53.972;12.286;2022-12-07T10:26:33;100375.91;;;0.01;100.00
64827;BME280;51265;53.972;12.286;2022-12-07T10:29:12;100373.78;;;0.03;100.00
64827;BME280;51265;53.972;12.286;2022-12-07T10:32:32;100364.84;;;0.14;100.00
64827;BME280;51265;53.972;12.286;2022-12-07T10:35:19;100368.13;;;0.16;100.00
64827;BME280;51265;53.972;12.286;2022-12-07T10:37:48;100350.69;;;0.12;100.00
64827;BME280;51265;53.972;12.286;2022-12-07T10:46:02;100340.09;;;0.22;100.00
64827;BME280;51265;53.972;12.286;2022-12-07T10:48:45;100328.19;;;0.23;100.00
64827;BME280;51265;53.972;12.286;2022-12-07T10:51:25;100319.25;;;0.22;100.00
64827;BME280;51265;53.972;12.286;2022-12-07T10:56:54;100313.13;;;0.27;100.00
64827;BME280;51265;53.972;12.286;2022-12-07T11:04:59;100297.09;;;0.66;100.00
64827;BME280;51265;53.972;12.286;2022-12-07T11:12:47;100273.38;;;0.44;100.00
64827;BME280;51265;53.972;12.286;2022-12-07T11:15:19;100259.72;;;0.39;100.00
64827;BME280;51265;53.972;12.286;2022-12-07T11:31:51;100229.28;;;0.20;100.00
64827;BME280;51265;53.972;12.286;2022-12-07T11:34:50;100212.28;;;0.25;100.00
64827;BME280;51265;53.972;12.286;2022-12-07T11:37:33;100210.09;;;0.22;100.00
64827;BME280;51265;53.972;12.286;2022-12-07T11:42:44;100203.50;;;0.18;100.00
64827;BME280;51265;53.972;12.286;2022-12-07T11:45:16;100184.16;;;-0.03;100.00
64827;BME280;51265;53.972;12.286;2022-12-07T11:50:31;100183.97;;;-0.36;100.00
64827;BME280;51265;53.972;12.286;2022-12-07T11:58:03;100174.25;;;-0.61;100.00
64827;BME280;51265;53.972;12.286;2022-12-07T12:00:30;100167.09;;;-0.67;100.00
64827;BME280;51265;53.972;12.286;2022-12-07T12:03:00;100153.06;;;-0.64;100.00
64827;BME280;51265;53.972;12.286;2022-12-07T12:05:27;100153.06;;;-0.64;100.00
64827;BME280;51265;53.972;12.286;2022-12-07T12:08:03;100159.28;;;-0.63;100.00
64827;BME280;51265;53.972;12.286;2022-12-07T12:13:43;100149.91;;;-0.72;100.00
64827;BME280;51265;53.972;12.286;2022-12-07T12:19:15;100134.94;;;-0.52;100.00
64827;BME280;51265;53.972;12.286;2022-12-07T12:21:45;100123.66;;;-0.48;100.00
64827;BME280;51265;53.972;12.286;2022-12-07T12:24:18;100122.00;;;-0.49;100.00
64827;BME280;51265;53.972;12.286;2022-12-07T12:26:52;100120.13;;;-0.49;100.00
64827;BME280;51265;53.972;12.286;2022-12-07T12:29:36;100107.53;;;-0.43;100.00
64827;BME280;51265;53.972;12.286;2022-12-07T12:32:12;100112.69;;;-0.42;100.00
64827;BME280;51265;53.972;12.286;2022-12-07T12:34:40;100116.00;;;-0.40;100.00
64827;BME280;51265;53.972;12.286;2022-12-07T12:37:38;100103.38;;;-0.34;100.00
64827;BME280;51265;53.972;12.286;2022-12-07T12:42:51;100094.75;;;-0.19;100.00
64827;BME280;51265;53.972;12.286;2022-12-07T12:47:55;100076.81;;;-0.09;100.00
64827;BME280;51265;53.972;12.286;2022-12-07T12:50:36;100075.75;;;-0.08;100.00
64827;BME280;51265;53.972;12.286;2022-12-07T13:03:52;100032.84;;;-0.16;100.00
64827;BME280;51265;53.972;12.286;2022-12-07T13:06:32;100025.75;;;-0.17;100.00
64827;BME280;51265;53.972;12.286;2022-12-07T13:09:01;100022.75;;;-0.20;100.00
64827;BME280;51265;53.972;12.286;2022-12-07T13:11:33;100021.41;;;-0.18;100.00
64827;BME280;51265;53.972;12.286;2022-12-07T13:14:37;100003.41;;;-0.12;100.00
64827;BME280;51265;53.972;12.286;2022-12-07T13:20:00;100002.06;;;-0.10;100.00
64827;BME280;51265;53.972;12.286;2022-12-07T13:25:05;99980.91;;;-0.13;100.00
64827;BME280;51265;53.972;12.286;2022-12-07T13:27:35;99964.66;;;-0.13;100.00
64827;BME280;51265;53.972;12.286;2022-12-07T13:30:12;99977.16;;;-0.12;100.00
64827;BME280;51265;53.972;12.286;2022-12-07T13:32:40;99961.47;;;-0.10;100.00
64827;BME280;51265;53.972;12.286;2022-12-07T13:35:28;99960.91;;;-0.12;100.00
64827;BME280;51265;53.972;12.286;2022-12-07T13:37:54;99963.63;;;-0.12;100.00
64827;BME280;51265;53.972;12.286;2022-12-07T13:40:22;99965.72;;;-0.14;100.00
64827;BME280;51265;53.972;12.286;2022-12-07T13:42:57;99952.19;;;-0.14;100.00
64827;BME280;51265;53.972;12.286;2022-12-07T13:45:26;99964.34;;;-0.16;100.00
64827;BME280;51265;53.972;12.286;2022-12-07T13:48:19;99958.09;;;-0.17;100.00
64827;BME280;51265;53.972;12.286;2022-12-07T13:50:57;99955.31;;;-0.22;100.00
64827;BME280;51265;53.972;12.286;2022-12-07T13:53:24;99960.72;;;-0.22;100.00
64827;BME280;51265;53.972;12.286;2022-12-07T13:55:50;99972.06;;;-0.25;100.00
64827;BME280;51265;53.972;12.286;2022-12-07T13:58:16;99966.66;;;-0.25;100.00
64827;BME280;51265;53.972;12.286;2022-12-07T14:00:42;99973.19;;;-0.21;100.00
64827;BME280;51265;53.972;12.286;2022-12-07T14:05:39;99976.00;;;-0.16;100.00
64827;BME280;51265;53.972;12.286;2022-12-07T14:08:22;99987.97;;;-0.12;100.00
64827;BME280;51265;53.972;12.286;2022-12-07T14:13:40;99973.78;;;-0.02;100.00
64827;BME280;51265;53.972;12.286;2022-12-07T14:18:47;99961.75;;;0.06;100.00
64827;BME280;51265;53.972;12.286;2022-12-07T14:21:16;99957.47;;;0.10;100.00
64827;BME280;51265;53.972;12.286;2022-12-07T14:23:43;99948.13;;;0.17;100.00
64827;BME280;51265;53.972;12.286;2022-12-07T14:26:13;99942.53;;;0.24;100.00
64827;BME280;51265;53.972;12.286;2022-12-07T14:28:40;99938.75;;;0.25;100.00
64827;BME280;51265;53.972;12.286;2022-12-07T14:31:18;99924.63;;;0.23;100.00
64827;BME280;51265;53.972;12.286;2022-12-07T14:33:45;99925.19;;;0.25;100.00